createdAt,value
2022-12-11T00:01:58.286Z,73.34
2022-12-11T00:04:31.307Z,72.98
2022-12-11T00:07:04.324Z,72.96
2022-12-11T00:09:37.670Z,72.80
2022-12-11T00:12:11.858Z,72.83
2022-12-11T00:14:44.683Z,73.27
2022-12-11T00:17:17.483Z,73.10
2022-12-11T00:19:50.365Z,72.99
2022-12-11T00:22:23.193Z,72.97
2022-12-11T00:24:56.050Z,73.08
2022-12-11T00:27:30.211Z,72.90
2022-12-11T00:30:03.060Z,72.84
2022-12-11T00:32:37.714Z,72.97
2022-12-11T00:35:11.368Z,72.94
2022-12-11T00:37:44.402Z,72.90
2022-12-11T00:40:17.438Z,73.05
2022-12-11T00:42:51.650Z,72.77
2022-12-11T00:45:24.417Z,72.89
2022-12-11T00:47:57.303Z,73.07
2022-12-11T00:50:30.189Z,72.80
2022-12-11T00:53:03.245Z,72.72
2022-12-11T00:55:38.892Z,72.46
2022-12-11T00:58:13.917Z,72.40
2022-12-11T01:00:48.376Z,72.64
2022-12-11T01:03:21.314Z,72.58
2022-12-11T01:05:55.489Z,72.79
2022-12-11T01:08:28.416Z,72.52
2022-12-11T01:11:05.427Z,72.96
2022-12-11T01:13:40.536Z,72.87
2022-12-11T01:16:15.890Z,72.57
2022-12-11T01:18:48.952Z,72.55
2022-12-11T01:21:22.127Z,72.21
2022-12-11T01:23:55.011Z,72.33
2022-12-11T01:26:27.879Z,72.00
2022-12-11T01:29:02.037Z,71.54
2022-12-11T01:31:34.994Z,70.97
2022-12-11T01:34:08.373Z,70.81
2022-12-11T01:36:41.309Z,70.76
2022-12-11T01:39:14.212Z,70.68
2022-12-11T01:41:47.220Z,70.38
2022-12-11T01:44:57.313Z,70.01
2022-12-11T01:47:31.586Z,70.22
2022-12-11T01:50:05.030Z,69.85
2022-12-11T01:52:38.278Z,70.11
2022-12-11T01:55:12.153Z,69.87
2022-12-11T01:57:49.781Z,69.55
2022-12-11T02:00:23.406Z,69.58
2022-12-11T02:02:57.639Z,69.15
2022-12-11T02:05:30.508Z,69.17
2022-12-11T02:08:04.536Z,68.98
2022-12-11T02:10:50.449Z,68.80
2022-12-11T02:13:33.672Z,68.52
2022-12-11T02:16:15.188Z,68.57
2022-12-11T02:19:01.917Z,68.53
2022-12-11T02:21:41.643Z,68.86
2022-12-11T02:24:28.133Z,69.46
2022-12-11T02:27:28.264Z,69.25
2022-12-11T02:30:05.249Z,69.56
2022-12-11T02:32:42.437Z,70.19
2022-12-11T02:35:20.549Z,70.64
2022-12-11T02:38:01.064Z,71.17
2022-12-11T02:40:38.591Z,71.08
2022-12-11T02:43:14.151Z,71.17
2022-12-11T02:45:52.190Z,71.48
2022-12-11T02:48:25.654Z,71.19
2022-12-11T02:51:00.757Z,70.84
2022-12-11T02:53:40.222Z,71.12
2022-12-11T02:56:20.510Z,71.25
2022-12-11T02:59:00.338Z,71.19
2022-12-11T03:01:34.728Z,71.19
2022-12-11T03:04:07.678Z,71.07
2022-12-11T03:06:45.390Z,70.72
2022-12-11T03:09:19.062Z,71.13
2022-12-11T03:11:53.327Z,71.17
2022-12-11T03:14:26.426Z,71.30
2022-12-11T03:17:09.373Z,71.03
2022-12-11T03:19:48.957Z,71.23
2022-12-11T03:22:27.344Z,70.88
2022-12-11T03:25:03.925Z,70.87
2022-12-11T03:27:43.963Z,70.40
2022-12-11T03:30:19.944Z,70.23
2022-12-11T03:32:58.122Z,70.02
2022-12-11T03:35:35.954Z,69.87
2022-12-11T03:38:13.983Z,69.87
2022-12-11T03:40:49.995Z,69.75
2022-12-11T03:43:26.797Z,69.75
2022-12-11T03:46:01.829Z,69.54
2022-12-11T03:48:39.552Z,69.64
2022-12-11T03:51:13.200Z,69.51
2022-12-11T03:53:48.737Z,69.46
2022-12-11T03:56:23.663Z,69.23
2022-12-11T03:58:56.596Z,69.79
2022-12-11T04:01:29.897Z,69.71
2022-12-11T04:04:04.345Z,69.76
2022-12-11T04:06:37.759Z,69.89
2022-12-11T04:09:12.014Z,69.61
2022-12-11T04:11:44.937Z,69.57
2022-12-11T04:14:35.105Z,69.59
2022-12-11T04:17:09.550Z,69.12
2022-12-11T04:20:01.357Z,68.82
2022-12-11T04:22:51.661Z,68.69
2022-12-11T04:25:24.556Z,68.15
2022-12-11T04:27:57.739Z,67.51
2022-12-11T04:30:34.094Z,67.50
2022-12-11T04:33:07.722Z,67.41
2022-12-11T04:35:41.940Z,67.27
2022-12-11T04:38:15.933Z,66.78
2022-12-11T04:40:49.060Z,67.24
2022-12-11T04:43:22.090Z,67.01
2022-12-11T04:46:03.482Z,66.80
2022-12-11T04:48:36.764Z,67.35
2022-12-11T04:51:11.582Z,67.25
2022-12-11T04:53:44.495Z,67.33
2022-12-11T04:56:17.724Z,67.80
2022-12-11T04:58:50.677Z,67.54
2022-12-11T05:01:24.772Z,67.41
2022-12-11T05:04:00.326Z,67.41
2022-12-11T05:06:34.683Z,67.49
2022-12-11T05:09:09.170Z,67.73
2022-12-11T05:11:42.337Z,67.88
2022-12-11T05:14:15.417Z,68.06
2022-12-11T05:16:48.532Z,68.31
2022-12-11T05:19:21.321Z,68.33
2022-12-11T05:21:58.575Z,68.25
2022-12-11T05:24:31.871Z,68.10
2022-12-11T05:27:04.909Z,67.63
2022-12-11T05:29:38.130Z,67.76
2022-12-11T05:32:11.175Z,67.99
2022-12-11T05:34:44.315Z,68.06
2022-12-11T05:37:18.751Z,68.10
2022-12-11T05:39:51.841Z,68.37
2022-12-11T05:42:28.835Z,68.62
2022-12-11T05:45:02.111Z,68.57
2022-12-11T05:47:35.641Z,68.45
2022-12-11T05:50:10.980Z,68.38
2022-12-11T05:52:45.320Z,68.60
2022-12-11T05:55:18.582Z,68.12
2022-12-11T05:57:51.642Z,68.14
2022-12-11T06:00:24.736Z,68.39
2022-12-11T06:02:57.687Z,68.33
2022-12-11T06:05:30.679Z,68.30
2022-12-11T06:08:05.210Z,68.45
2022-12-11T06:10:38.310Z,68.41
2022-12-11T06:13:11.228Z,68.83
2022-12-11T06:15:44.613Z,68.61
2022-12-11T06:18:17.721Z,68.91
2022-12-11T06:20:50.785Z,68.98
2022-12-11T06:23:25.472Z,68.68
2022-12-11T06:25:59.785Z,68.75
2022-12-11T06:28:34.399Z,69.05
2022-12-11T06:31:07.864Z,68.44
2022-12-11T06:33:41.405Z,68.90
2022-12-11T06:36:16.563Z,68.56
2022-12-11T06:38:54.457Z,68.30
2022-12-11T06:41:27.582Z,67.55
2022-12-11T06:44:01.074Z,67.17
2022-12-11T06:46:33.945Z,67.15
2022-12-11T06:49:06.887Z,66.23
2022-12-11T06:51:40.633Z,65.77
2022-12-11T06:54:17.303Z,65.96
2022-12-11T06:56:51.902Z,65.56
2022-12-11T06:59:25.963Z,66.16
2022-12-11T07:01:58.820Z,66.01
2022-12-11T07:04:32.464Z,66.22
2022-12-11T07:07:05.337Z,66.02
2022-12-11T07:09:42.506Z,66.25
2022-12-11T07:12:15.655Z,66.08
2022-12-11T07:14:48.940Z,66.41
2022-12-11T07:17:21.944Z,66.55
2022-12-11T07:19:54.910Z,67.38
2022-12-11T07:22:27.875Z,67.06
2022-12-11T07:25:02.339Z,67.59
2022-12-11T07:27:35.284Z,67.68
2022-12-11T07:30:09.689Z,67.75
2022-12-11T07:32:43.326Z,68.11
2022-12-11T07:35:16.605Z,67.90
2022-12-11T07:37:49.439Z,68.40
2022-12-11T07:40:23.818Z,68.48
2022-12-11T07:42:56.866Z,68.78
2022-12-11T07:45:29.890Z,68.55
2022-12-11T07:48:03.300Z,68.79
2022-12-11T07:50:39.963Z,68.81
2022-12-11T07:53:12.924Z,68.63
2022-12-11T07:55:47.224Z,68.87
2022-12-11T07:58:21.413Z,69.14
2022-12-11T08:00:54.354Z,69.24
2022-12-11T08:03:27.296Z,69.37
2022-12-11T08:06:00.517Z,68.93
2022-12-11T08:08:33.901Z,69.24
2022-12-11T08:11:10.606Z,69.66
2022-12-11T08:13:44.892Z,69.14
2022-12-11T08:16:19.356Z,68.97
2022-12-11T08:18:52.807Z,69.06
2022-12-11T08:21:27.750Z,68.82
2022-12-11T08:24:00.542Z,69.04
2022-12-11T08:26:34.962Z,68.39
2022-12-11T08:29:07.885Z,68.22
2022-12-11T08:31:41.554Z,68.37
2022-12-11T08:34:14.412Z,67.95
2022-12-11T08:36:47.628Z,67.88
2022-12-11T08:39:20.599Z,67.66
2022-12-11T08:41:55.077Z,67.46
2022-12-11T08:44:28.455Z,67.74
2022-12-11T08:47:02.796Z,67.00
2022-12-11T08:49:35.682Z,67.09
2022-12-11T08:52:08.990Z,67.55
2022-12-11T08:54:41.907Z,67.31
2022-12-11T08:57:16.577Z,66.93
2022-12-11T08:59:49.607Z,67.35
2022-12-11T09:02:22.736Z,67.65
2022-12-11T09:04:55.893Z,67.44
2022-12-11T09:07:29.022Z,67.94
2022-12-11T09:10:02.096Z,68.40
2022-12-11T09:12:37.999Z,68.48
2022-12-11T09:15:11.875Z,69.14
2022-12-11T09:17:46.764Z,68.98
2022-12-11T09:20:19.776Z,69.02
2022-12-11T09:22:54.112Z,69.07
2022-12-11T09:25:27.514Z,69.13
2022-12-11T09:28:01.994Z,68.85
2022-12-11T09:30:35.258Z,69.42
2022-12-11T09:33:09.320Z,69.42
2022-12-11T09:35:42.254Z,69.79
2022-12-11T09:38:15.346Z,69.20
2022-12-11T09:40:48.226Z,69.41
2022-12-11T09:43:37.503Z,68.75
2022-12-11T09:46:20.753Z,68.89
2022-12-11T09:48:56.117Z,68.87
2022-12-11T09:51:34.429Z,68.76
2022-12-11T09:54:07.533Z,68.70
2022-12-11T09:56:49.176Z,69.03
2022-12-11T09:59:28.573Z,68.65
2022-12-11T10:02:12.659Z,68.13
2022-12-11T10:04:52.615Z,68.00
2022-12-11T10:07:37.457Z,67.83
2022-12-11T10:10:22.138Z,67.01
2022-12-11T10:13:06.674Z,67.15
2022-12-11T10:15:48.195Z,66.60
2022-12-11T10:18:25.186Z,67.48
2022-12-11T10:20:58.637Z,67.27
2022-12-11T10:23:37.396Z,68.00
2022-12-11T10:26:17.519Z,68.39
2022-12-11T10:28:50.957Z,67.84
2022-12-11T10:31:38.525Z,67.60
2022-12-11T10:34:14.798Z,68.22
2022-12-11T10:36:48.130Z,68.47
2022-12-11T10:39:23.078Z,68.63
2022-12-11T10:41:57.410Z,68.65
2022-12-11T10:44:32.093Z,68.96
2022-12-11T10:47:11.287Z,69.35
2022-12-11T10:49:53.132Z,69.33
2022-12-11T10:52:28.573Z,69.21
2022-12-11T10:55:04.199Z,69.92
2022-12-11T10:57:40.069Z,69.75
2022-12-11T11:00:32.615Z,69.67
2022-12-11T11:03:21.241Z,69.66
2022-12-11T11:06:04.521Z,69.60
2022-12-11T11:08:44.217Z,69.97
2022-12-11T11:11:24.607Z,69.91
2022-12-11T11:14:09.296Z,70.62
2022-12-11T11:16:45.446Z,70.81
2022-12-11T11:19:23.559Z,70.53
2022-12-11T11:22:00.017Z,70.22
2022-12-11T11:24:37.908Z,70.04
2022-12-11T11:27:20.490Z,70.11
2022-12-11T11:29:56.795Z,69.85
2022-12-11T11:32:34.571Z,69.45
2022-12-11T11:35:18.820Z,69.19
2022-12-11T11:37:59.587Z,69.09
2022-12-11T11:40:38.144Z,69.20
2022-12-11T11:43:20.141Z,68.96
2022-12-11T11:45:57.312Z,69.04
2022-12-11T11:48:37.603Z,69.13
2022-12-11T11:51:17.980Z,68.88
2022-12-11T11:53:52.720Z,68.66
2022-12-11T11:56:28.502Z,69.11
2022-12-11T11:59:09.170Z,69.11
2022-12-11T12:01:43.150Z,68.94
2022-12-11T12:04:16.175Z,68.70
2022-12-11T12:07:05.244Z,68.67
2022-12-11T12:09:46.731Z,68.59
2022-12-11T12:12:34.005Z,68.52
2022-12-11T12:15:22.344Z,68.45
2022-12-11T12:17:57.703Z,68.97
2022-12-11T12:20:40.101Z,68.99
2022-12-11T12:23:36.959Z,68.70
2022-12-11T12:26:18.744Z,69.08
2022-12-11T12:29:02.988Z,68.72
2022-12-11T12:31:52.575Z,68.51
2022-12-11T12:34:37.487Z,68.17
2022-12-11T12:37:17.593Z,68.78
2022-12-11T12:40:03.292Z,68.52
2022-12-11T12:42:45.173Z,68.47
2022-12-11T12:45:24.394Z,67.76
2022-12-11T12:47:57.416Z,68.09
2022-12-11T12:50:38.683Z,68.36
2022-12-11T12:53:18.071Z,68.12
2022-12-11T12:55:54.539Z,67.89
2022-12-11T12:58:32.363Z,68.85
2022-12-11T13:01:10.251Z,67.65
2022-12-11T13:04:03.616Z,67.49
2022-12-11T13:06:38.957Z,68.00
2022-12-11T13:09:17.477Z,67.92
2022-12-11T13:11:57.973Z,67.91
2022-12-11T13:14:34.238Z,68.29
2022-12-11T13:17:27.604Z,68.10
2022-12-11T13:20:16.346Z,67.48
2022-12-11T13:22:57.037Z,68.07
2022-12-11T13:25:34.386Z,68.44
2022-12-11T13:28:27.451Z,68.29
2022-12-11T13:31:07.433Z,68.82
2022-12-11T13:33:45.856Z,68.54
2022-12-11T13:36:33.807Z,68.18
2022-12-11T13:39:11.044Z,68.57
2022-12-11T13:41:47.266Z,68.51
2022-12-11T13:44:25.683Z,68.62
2022-12-11T13:47:03.719Z,68.56
2022-12-11T13:49:38.649Z,68.16
2022-12-11T13:52:19.641Z,67.92
2022-12-11T13:54:56.121Z,68.28
2022-12-11T13:57:33.597Z,68.46
2022-12-11T14:00:22.464Z,68.08
2022-12-11T14:03:00.401Z,68.41
2022-12-11T14:05:35.075Z,68.26
2022-12-11T14:08:11.015Z,68.34
2022-12-11T14:10:52.124Z,68.30
2022-12-11T14:13:29.356Z,68.26
2022-12-11T14:16:05.311Z,67.93
2022-12-11T14:18:38.953Z,68.00
2022-12-11T14:21:20.705Z,67.94
2022-12-11T14:23:54.032Z,67.38
2022-12-11T14:26:29.396Z,67.40
2022-12-11T14:29:02.873Z,67.87
2022-12-11T14:31:42.100Z,67.66
2022-12-11T14:34:19.062Z,67.68
2022-12-11T14:36:52.575Z,67.50
2022-12-11T14:39:29.872Z,67.58
2022-12-11T14:42:10.270Z,67.74
2022-12-11T14:44:49.758Z,67.55
2022-12-11T14:47:29.466Z,67.52
2022-12-11T14:50:08.101Z,67.34
2022-12-11T14:52:45.740Z,67.71
2022-12-11T14:55:24.183Z,67.31
2022-12-11T14:58:00.167Z,67.41
2022-12-11T15:00:36.673Z,67.66
2022-12-11T15:03:24.768Z,67.63
2022-12-11T15:05:59.702Z,67.86
2022-12-11T15:08:34.476Z,67.60
2022-12-11T15:11:09.783Z,67.93
2022-12-11T15:13:53.475Z,67.80
2022-12-11T15:16:29.541Z,67.78
2022-12-11T15:19:03.989Z,67.53
2022-12-11T15:21:38.773Z,67.62
2022-12-11T15:24:27.373Z,67.30
2022-12-11T15:27:02.058Z,67.14
2022-12-11T15:29:37.363Z,67.26
2022-12-11T15:32:19.619Z,67.20
2022-12-11T15:34:56.105Z,67.26
2022-12-11T15:37:31.083Z,67.14
2022-12-11T15:40:06.135Z,66.78
2022-12-11T15:42:41.638Z,66.54
2022-12-11T15:45:19.652Z,66.35
2022-12-11T15:47:53.446Z,66.48
2022-12-11T15:50:29.814Z,66.24
2022-12-11T15:53:03.106Z,66.15
2022-12-11T15:55:36.163Z,66.23
2022-12-11T15:58:14.891Z,66.26
2022-12-11T16:00:48.177Z,65.51
2022-12-11T16:03:24.290Z,65.59
2022-12-11T16:05:59.197Z,65.89
2022-12-11T16:08:32.539Z,65.88
2022-12-11T16:11:05.820Z,66.16
2022-12-11T16:13:41.390Z,65.99
2022-12-11T16:16:14.399Z,65.87
2022-12-11T16:18:47.329Z,66.03
2022-12-11T16:21:21.924Z,65.82
2022-12-11T16:23:54.925Z,65.93
2022-12-11T16:26:28.648Z,66.04
2022-12-11T16:29:02.257Z,65.85
2022-12-11T16:31:35.487Z,65.69
2022-12-11T16:34:08.572Z,65.68
2022-12-11T16:36:43.059Z,65.76
2022-12-11T16:39:16.164Z,65.36
2022-12-11T16:41:49.178Z,65.34
2022-12-11T16:44:24.916Z,65.72
2022-12-11T16:46:59.142Z,65.46
2022-12-11T16:49:33.869Z,65.50
2022-12-11T16:52:09.002Z,65.35
2022-12-11T16:54:42.481Z,65.36
2022-12-11T16:57:15.644Z,65.20
2022-12-11T16:59:53.628Z,65.40
2022-12-11T17:02:26.569Z,65.30
2022-12-11T17:05:00.117Z,65.28
2022-12-11T17:07:35.235Z,65.51
2022-12-11T17:10:09.942Z,65.67
2022-12-11T17:12:42.907Z,65.49
2022-12-11T17:15:15.732Z,65.45
2022-12-11T17:17:48.846Z,65.68
2022-12-11T17:20:22.162Z,65.61
2022-12-11T17:22:58.087Z,65.67
2022-12-11T17:25:31.035Z,65.73
2022-12-11T17:28:05.168Z,65.84
2022-12-11T17:30:43.671Z,65.71
2022-12-11T17:33:17.555Z,65.75
2022-12-11T17:35:53.103Z,65.49
2022-12-11T17:38:27.857Z,65.37
2022-12-11T17:41:01.141Z,65.41
2022-12-11T17:43:34.523Z,65.20
2022-12-11T17:46:07.467Z,65.45
2022-12-11T17:48:41.251Z,65.39
2022-12-11T17:51:21.128Z,65.41
2022-12-11T17:53:57.300Z,65.03
2022-12-11T17:56:30.252Z,65.54
2022-12-11T17:59:03.638Z,65.42
2022-12-11T18:01:36.668Z,65.20
2022-12-11T18:04:10.774Z,65.52
2022-12-11T18:06:44.068Z,65.47
2022-12-11T18:09:18.275Z,65.28
2022-12-11T18:11:53.889Z,65.07
2022-12-11T18:14:27.033Z,65.13
2022-12-11T18:17:00.038Z,64.88
2022-12-11T18:19:33.201Z,65.08
2022-12-11T18:22:06.392Z,65.00
2022-12-11T18:24:40.923Z,64.72
2022-12-11T18:27:15.262Z,65.01
2022-12-11T18:29:48.245Z,64.74
2022-12-11T18:32:21.373Z,64.67
2022-12-11T18:34:54.492Z,64.58
2022-12-11T18:37:29.711Z,64.89
2022-12-11T18:40:08.419Z,64.59
2022-12-11T18:42:41.722Z,64.76
2022-12-11T18:45:15.296Z,64.65
2022-12-11T18:47:50.948Z,64.77
2022-12-11T18:50:24.185Z,64.67
2022-12-11T18:52:57.683Z,64.45
2022-12-11T18:55:35.592Z,64.47
2022-12-11T18:58:08.492Z,64.66
2022-12-11T19:00:45.323Z,64.57
2022-12-11T19:03:18.839Z,64.54
2022-12-11T19:05:51.827Z,64.31
2022-12-11T19:08:25.217Z,64.44
2022-12-11T19:10:59.920Z,64.30
2022-12-11T19:13:34.577Z,64.24
2022-12-11T19:16:08.225Z,64.29
2022-12-11T19:18:41.621Z,64.27
2022-12-11T19:21:15.681Z,64.46
2022-12-11T19:23:50.218Z,64.16
2022-12-11T19:26:27.196Z,63.99
2022-12-11T19:29:01.142Z,64.26
2022-12-11T19:31:35.044Z,64.09
2022-12-11T19:34:08.395Z,63.73
2022-12-11T19:36:41.764Z,64.23
2022-12-11T19:39:16.500Z,63.97
2022-12-11T19:41:50.843Z,64.12
2022-12-11T19:44:24.016Z,64.14
2022-12-11T19:46:57.242Z,63.92
2022-12-11T19:49:30.371Z,64.00
2022-12-11T19:52:04.777Z,64.12
2022-12-11T19:54:37.925Z,64.08
2022-12-11T19:57:12.251Z,64.11
2022-12-11T19:59:55.388Z,64.04
2022-12-11T20:02:30.041Z,64.00
2022-12-11T20:05:03.623Z,64.05
2022-12-11T20:07:36.641Z,64.06
2022-12-11T20:10:10.984Z,64.06
2022-12-11T20:12:45.505Z,64.04
2022-12-11T20:15:20.510Z,64.10
2022-12-11T20:17:54.498Z,64.12
2022-12-11T20:20:34.841Z,64.00
2022-12-11T20:23:32.917Z,63.96
2022-12-11T20:26:09.103Z,64.07
2022-12-11T20:28:43.492Z,63.88
2022-12-11T20:31:20.534Z,63.95
2022-12-11T20:33:57.154Z,63.94
2022-12-11T20:36:31.380Z,63.88
2022-12-11T20:39:05.068Z,64.08
2022-12-11T20:41:39.618Z,64.11
2022-12-11T20:44:13.960Z,63.62
2022-12-11T20:46:47.465Z,63.81
2022-12-11T20:49:20.543Z,63.63
2022-12-11T20:51:54.147Z,63.71
2022-12-11T20:54:28.391Z,63.49
2022-12-11T20:57:03.620Z,63.60
2022-12-11T20:59:39.263Z,63.72
2022-12-11T21:02:12.787Z,63.63
2022-12-11T21:04:46.621Z,63.73
2022-12-11T21:07:21.172Z,63.53
2022-12-11T21:09:54.640Z,63.26
2022-12-11T21:12:31.693Z,63.31
2022-12-11T21:15:08.193Z,63.27
2022-12-11T21:17:41.807Z,63.40
2022-12-11T21:20:15.122Z,63.28
2022-12-11T21:22:49.591Z,63.29
2022-12-11T21:25:23.117Z,63.31
2022-12-11T21:27:56.353Z,63.78
2022-12-11T21:30:30.881Z,63.52
2022-12-11T21:33:05.985Z,63.65
2022-12-11T21:35:40.645Z,63.63
2022-12-11T21:38:13.923Z,63.66
2022-12-11T21:40:47.127Z,63.59
2022-12-11T21:43:23.864Z,63.27
2022-12-11T21:46:05.061Z,63.61
2022-12-11T21:48:38.770Z,63.59
2022-12-11T21:51:19.174Z,63.49
2022-12-11T21:53:52.389Z,63.41
2022-12-11T21:56:28.197Z,63.40
2022-12-11T21:59:01.716Z,63.44
2022-12-11T22:01:38.359Z,63.70
2022-12-11T22:04:12.171Z,63.47
2022-12-11T22:06:47.260Z,63.52
2022-12-11T22:09:20.572Z,63.48
2022-12-11T22:11:58.375Z,63.53
2022-12-11T22:14:32.003Z,63.66
2022-12-11T22:17:06.367Z,63.63
2022-12-11T22:19:40.253Z,63.72
2022-12-11T22:22:13.831Z,63.49
2022-12-11T22:24:47.409Z,63.57
2022-12-11T22:27:23.674Z,63.54
2022-12-11T22:29:57.221Z,63.60
2022-12-11T22:32:31.631Z,63.62
2022-12-11T22:35:05.177Z,63.90
2022-12-11T22:37:38.491Z,63.42
2022-12-11T22:40:11.949Z,63.18
2022-12-11T22:42:45.154Z,63.25
2022-12-11T22:45:18.173Z,62.85
2022-12-11T22:47:53.040Z,63.07
2022-12-11T22:50:26.082Z,63.07
2022-12-11T22:53:00.368Z,63.46
2022-12-11T22:55:34.113Z,63.91
2022-12-11T22:58:07.075Z,64.16
2022-12-11T23:00:41.369Z,64.81
2022-12-11T23:03:18.495Z,64.92
2022-12-11T23:05:51.712Z,65.24
2022-12-11T23:08:24.828Z,65.64
2022-12-11T23:10:57.964Z,65.71
2022-12-11T23:13:34.782Z,65.65
2022-12-11T23:16:09.043Z,65.87
2022-12-11T23:18:44.491Z,65.63
2022-12-11T23:21:17.550Z,65.44
2022-12-11T23:23:53.780Z,65.44
2022-12-11T23:26:30.079Z,65.04
2022-12-11T23:29:07.375Z,64.90
2022-12-11T23:31:40.504Z,64.38
2022-12-11T23:34:17.274Z,63.94
2022-12-11T23:36:51.357Z,63.85
2022-12-11T23:39:24.966Z,63.52
2022-12-11T23:41:58.247Z,63.56
2022-12-11T23:44:31.221Z,63.31
2022-12-11T23:47:04.395Z,63.14
2022-12-11T23:49:39.044Z,62.74
2022-12-11T23:52:12.672Z,62.64
2022-12-11T23:54:45.526Z,62.64
2022-12-11T23:57:22.636Z,62.58
2022-12-11T23:59:56.027Z,62.54
